sensor_id;sensor_type;location;lat;lon;timestamp;temperature;humidity
75865;HTU21D;64510;46.704;38.274;2023-03-21T00:00:23;7.62;98.74
75865;HTU21D;64510;46.704;38.274;2023-03-21T00:02:49;7.58;98.84
75865;HTU21D;64510;46.704;38.274;2023-03-21T00:05:15;7.56;98.89
75865;HTU21D;64510;46.704;38.274;2023-03-21T00:07:41;7.54;98.99
75865;HTU21D;64510;46.704;38.274;2023-03-21T00:10:08;7.50;98.99
75865;HTU21D;64510;46.704;38.274;2023-03-21T00:12:34;7.47;99.09
75865;HTU21D;64510;46.704;38.274;2023-03-21T00:15:04;7.46;99.08
75865;HTU21D;64510;46.704;38.274;2023-03-21T00:17:31;7.42;99.07
75865;HTU21D;64510;46.704;38.274;2023-03-21T00:20:01;7.39;99.12
75865;HTU21D;64510;46.704;38.274;2023-03-21T00:22:33;7.37;99.13
75865;HTU21D;64510;46.704;38.274;2023-03-21T00:25:00;7.34;99.13
75865;HTU21D;64510;46.704;38.274;2023-03-21T00:27:26;7.35;99.29
75865;HTU21D;64510;46.704;38.274;2023-03-21T00:29:54;7.35;99.22
75865;HTU21D;64510;46.704;38.274;2023-03-21T00:32:20;7.33;99.30
75865;HTU21D;64510;46.704;38.274;2023-03-21T00:34:47;7.31;99.22
75865;HTU21D;64510;46.704;38.274;2023-03-21T00:37:14;7.32;99.33
75865;HTU21D;64510;46.704;38.274;2023-03-21T00:39:45;7.30;99.26
75865;HTU21D;64510;46.704;38.274;2023-03-21T00:42:14;7.26;99.14
75865;HTU21D;64510;46.704;38.274;2023-03-21T00:44:41;7.22;99.22
75865;HTU21D;64510;46.704;38.274;2023-03-21T00:47:08;7.19;99.35
75865;HTU21D;64510;46.704;38.274;2023-03-21T00:49:35;7.18;99.33
75865;HTU21D;64510;46.704;38.274;2023-03-21T00:52:06;7.16;99.27
75865;HTU21D;64510;46.704;38.274;2023-03-21T00:54:33;7.16;99.27
75865;HTU21D;64510;46.704;38.274;2023-03-21T00:57:00;7.12;99.32
75865;HTU21D;64510;46.704;38.274;2023-03-21T00:59:29;7.12;99.39
75865;HTU21D;64510;46.704;38.274;2023-03-21T01:01:55;7.13;99.42
75865;HTU21D;64510;46.704;38.274;2023-03-21T01:04:21;7.12;99.47
75865;HTU21D;64510;46.704;38.274;2023-03-21T01:06:52;7.15;99.45
75865;HTU21D;64510;46.704;38.274;2023-03-21T01:09:21;7.13;99.38
75865;HTU21D;64510;46.704;38.274;2023-03-21T01:11:48;7.12;99.47
75865;HTU21D;64510;46.704;38.274;2023-03-21T01:14:16;7.11;99.56
75865;HTU21D;64510;46.704;38.274;2023-03-21T01:16:42;7.05;99.43
75865;HTU21D;64510;46.704;38.274;2023-03-21T01:19:12;7.01;99.54
75865;HTU21D;64510;46.704;38.274;2023-03-21T01:21:38;6.98;99.52
75865;HTU21D;64510;46.704;38.274;2023-03-21T01:24:04;6.96;99.60
75865;HTU21D;64510;46.704;38.274;2023-03-21T01:26:31;6.94;99.60
75865;HTU21D;64510;46.704;38.274;2023-03-21T01:28:57;6.93;99.56
75865;HTU21D;64510;46.704;38.274;2023-03-21T01:31:24;6.91;99.66
75865;HTU21D;64510;46.704;38.274;2023-03-21T01:33:50;6.91;99.79
75865;HTU21D;64510;46.704;38.274;2023-03-21T01:36:21;6.89;99.78
75865;HTU21D;64510;46.704;38.274;2023-03-21T01:38:49;6.86;99.91
75865;HTU21D;64510;46.704;38.274;2023-03-21T01:41:39;6.86;100.06
75865;HTU21D;64510;46.704;38.274;2023-03-21T01:44:14;6.85;100.11
75865;HTU21D;64510;46.704;38.274;2023-03-21T01:46:44;6.84;100.16
75865;HTU21D;64510;46.704;38.274;2023-03-21T01:49:37;6.85;100.22
75865;HTU21D;64510;46.704;38.274;2023-03-21T01:52:28;6.82;100.21
75865;HTU21D;64510;46.704;38.274;2023-03-21T01:54:56;6.83;100.51
75865;HTU21D;64510;46.704;38.274;2023-03-21T01:57:37;6.83;100.54
75865;HTU21D;64510;46.704;38.274;2023-03-21T02:00:06;6.82;100.66
75865;HTU21D;64510;46.704;38.274;2023-03-21T02:02:59;6.82;100.83
75865;HTU21D;64510;46.704;38.274;2023-03-21T02:05:59;6.81;100.97
75865;HTU21D;64510;46.704;38.274;2023-03-21T02:08:30;6.78;101.28
75865;HTU21D;64510;46.704;38.274;2023-03-21T02:10:58;6.74;101.32
75865;HTU21D;64510;46.704;38.274;2023-03-21T02:13:34;6.74;101.36
75865;HTU21D;64510;46.704;38.274;2023-03-21T02:30:25;6.63;101.41
75865;HTU21D;64510;46.704;38.274;2023-03-21T02:33:18;6.59;101.25
75865;HTU21D;64510;46.704;38.274;2023-03-21T02:36:27;6.55;101.26
75865;HTU21D;64510;46.704;38.274;2023-03-21T02:39:14;6.56;101.19
75865;HTU21D;64510;46.704;38.274;2023-03-21T02:42:05;6.51;101.09
75865;HTU21D;64510;46.704;38.274;2023-03-21T02:47:17;6.46;100.99
75865;HTU21D;64510;46.704;38.274;2023-03-21T02:49:55;6.41;101.01
75865;HTU21D;64510;46.704;38.274;2023-03-21T02:52:26;6.38;101.02
75865;HTU21D;64510;46.704;38.274;2023-03-21T02:54:55;6.37;101.09
75865;HTU21D;64510;46.704;38.274;2023-03-21T02:57:28;6.39;101.03
75865;HTU21D;64510;46.704;38.274;2023-03-21T03:00:00;6.36;100.94
75865;HTU21D;64510;46.704;38.274;2023-03-21T03:02:36;6.35;100.96
75865;HTU21D;64510;46.704;38.274;2023-03-21T03:05:12;6.35;101.02
75865;HTU21D;64510;46.704;38.274;2023-03-21T03:13:20;6.33;100.98
75865;HTU21D;64510;46.704;38.274;2023-03-21T03:18:51;6.28;100.90
75865;HTU21D;64510;46.704;38.274;2023-03-21T03:21:44;6.27;100.96
75865;HTU21D;64510;46.704;38.274;2023-03-21T03:24:21;6.27;100.87
75865;HTU21D;64510;46.704;38.274;2023-03-21T03:26:58;6.24;100.87
75865;HTU21D;64510;46.704;38.274;2023-03-21T03:29:29;6.21;100.86
75865;HTU21D;64510;46.704;38.274;2023-03-21T03:32:01;6.20;100.91
75865;HTU21D;64510;46.704;38.274;2023-03-21T03:34:34;6.19;100.92
75865;HTU21D;64510;46.704;38.274;2023-03-21T03:37:08;6.22;101.07
75865;HTU21D;64510;46.704;38.274;2023-03-21T03:39:40;6.26;101.20
75865;HTU21D;64510;46.704;38.274;2023-03-21T03:42:17;6.25;101.03
75865;HTU21D;64510;46.704;38.274;2023-03-21T03:44:47;6.23;100.82
75865;HTU21D;64510;46.704;38.274;2023-03-21T03:47:55;6.23;100.83
75865;HTU21D;64510;46.704;38.274;2023-03-21T03:50:41;6.27;100.87
75865;HTU21D;64510;46.704;38.274;2023-03-21T03:53:29;6.38;100.83
75865;HTU21D;64510;46.704;38.274;2023-03-21T03:55:59;6.53;100.80
75865;HTU21D;64510;46.704;38.274;2023-03-21T03:58:28;6.67;100.78
75865;HTU21D;64510;46.704;38.274;2023-03-21T04:00:56;6.82;100.81
75865;HTU21D;64510;46.704;38.274;2023-03-21T04:03:22;7.00;100.79
75865;HTU21D;64510;46.704;38.274;2023-03-21T04:05:49;7.19;100.80
75865;HTU21D;64510;46.704;38.274;2023-03-21T04:08:15;7.40;100.85
75865;HTU21D;64510;46.704;38.274;2023-03-21T04:10:46;7.56;100.94
75865;HTU21D;64510;46.704;38.274;2023-03-21T04:13:14;7.69;100.98
75865;HTU21D;64510;46.704;38.274;2023-03-21T04:16:09;7.75;100.93
75865;HTU21D;64510;46.704;38.274;2023-03-21T04:18:37;7.62;100.95
75865;HTU21D;64510;46.704;38.274;2023-03-21T04:21:09;7.54;101.05
75865;HTU21D;64510;46.704;38.274;2023-03-21T04:23:36;7.49;101.11
75865;HTU21D;64510;46.704;38.274;2023-03-21T04:26:03;7.47;101.22
75865;HTU21D;64510;46.704;38.274;2023-03-21T04:28:35;7.45;101.24
75865;HTU21D;64510;46.704;38.274;2023-03-21T04:31:23;7.46;101.27
75865;HTU21D;64510;46.704;38.274;2023-03-21T04:33:57;7.48;101.28
75865;HTU21D;64510;46.704;38.274;2023-03-21T04:36:25;7.64;101.46
75865;HTU21D;64510;46.704;38.274;2023-03-21T04:39:05;7.89;101.66
75865;HTU21D;64510;46.704;38.274;2023-03-21T04:41:41;8.21;101.77
75865;HTU21D;64510;46.704;38.274;2023-03-21T04:44:08;8.53;101.77
75865;HTU21D;64510;46.704;38.274;2023-03-21T04:46:37;8.78;101.62
75865;HTU21D;64510;46.704;38.274;2023-03-21T04:49:05;8.95;101.68
75865;HTU21D;64510;46.704;38.274;2023-03-21T04:51:35;9.19;101.75
75865;HTU21D;64510;46.704;38.274;2023-03-21T04:54:02;9.25;101.32
75865;HTU21D;64510;46.704;38.274;2023-03-21T04:56:29;9.48;101.49
75865;HTU21D;64510;46.704;38.274;2023-03-21T04:58:59;9.59;100.69
75865;HTU21D;64510;46.704;38.274;2023-03-21T05:01:26;9.59;100.57
75865;HTU21D;64510;46.704;38.274;2023-03-21T05:04:00;9.41;100.30
75865;HTU21D;64510;46.704;38.274;2023-03-21T05:06:26;9.54;100.93
75865;HTU21D;64510;46.704;38.274;2023-03-21T05:08:56;9.91;100.99
75865;HTU21D;64510;46.704;38.274;2023-03-21T05:11:27;10.10;100.77
75865;HTU21D;64510;46.704;38.274;2023-03-21T05:13:56;10.29;100.33
75865;HTU21D;64510;46.704;38.274;2023-03-21T05:16:22;10.46;99.98
75865;HTU21D;64510;46.704;38.274;2023-03-21T05:18:59;10.64;99.86
75865;HTU21D;64510;46.704;38.274;2023-03-21T05:21:32;10.73;99.52
75865;HTU21D;64510;46.704;38.274;2023-03-21T05:24:24;10.87;99.77
75865;HTU21D;64510;46.704;38.274;2023-03-21T05:26:51;11.04;97.95
75865;HTU21D;64510;46.704;38.274;2023-03-21T05:29:22;11.14;97.84
75865;HTU21D;64510;46.704;38.274;2023-03-21T05:31:56;11.27;98.11
75865;HTU21D;64510;46.704;38.274;2023-03-21T05:34:23;11.46;97.34
75865;HTU21D;64510;46.704;38.274;2023-03-21T05:36:50;11.66;97.45
75865;HTU21D;64510;46.704;38.274;2023-03-21T05:39:16;11.78;96.63
75865;HTU21D;64510;46.704;38.274;2023-03-21T05:41:53;11.88;96.68
75865;HTU21D;64510;46.704;38.274;2023-03-21T05:44:19;11.93;96.13
75865;HTU21D;64510;46.704;38.274;2023-03-21T05:46:45;12.02;95.87
75865;HTU21D;64510;46.704;38.274;2023-03-21T05:49:11;12.12;95.76
75865;HTU21D;64510;46.704;38.274;2023-03-21T05:51:38;12.14;94.98
75865;HTU21D;64510;46.704;38.274;2023-03-21T05:54:04;12.07;95.12
75865;HTU21D;64510;46.704;38.274;2023-03-21T05:56:31;12.00;94.55
75865;HTU21D;64510;46.704;38.274;2023-03-21T05:59:03;11.85;95.01
75865;HTU21D;64510;46.704;38.274;2023-03-21T06:01:33;12.10;94.98
75865;HTU21D;64510;46.704;38.274;2023-03-21T06:04:08;12.20;94.62
75865;HTU21D;64510;46.704;38.274;2023-03-21T06:06:35;12.14;93.82
75865;HTU21D;64510;46.704;38.274;2023-03-21T06:09:01;12.30;93.76
75865;HTU21D;64510;46.704;38.274;2023-03-21T06:11:31;12.41;92.32
75865;HTU21D;64510;46.704;38.274;2023-03-21T06:14:15;12.26;92.24
75865;HTU21D;64510;46.704;38.274;2023-03-21T06:16:43;12.19;92.19
75865;HTU21D;64510;46.704;38.274;2023-03-21T06:19:10;11.93;92.14
75865;HTU21D;64510;46.704;38.274;2023-03-21T06:21:57;12.01;92.85
75865;HTU21D;64510;46.704;38.274;2023-03-21T06:24:23;12.22;92.74
75865;HTU21D;64510;46.704;38.274;2023-03-21T06:26:49;12.42;92.02
75865;HTU21D;64510;46.704;38.274;2023-03-21T06:29:15;12.45;91.82
75865;HTU21D;64510;46.704;38.274;2023-03-21T06:31:46;12.43;91.58
75865;HTU21D;64510;46.704;38.274;2023-03-21T06:34:12;12.42;91.85
75865;HTU21D;64510;46.704;38.274;2023-03-21T06:36:38;12.35;91.53
75865;HTU21D;64510;46.704;38.274;2023-03-21T06:39:04;12.26;91.15
75865;HTU21D;64510;46.704;38.274;2023-03-21T06:41:32;12.34;90.92
75865;HTU21D;64510;46.704;38.274;2023-03-21T06:44:02;12.42;90.82
75865;HTU21D;64510;46.704;38.274;2023-03-21T06:46:32;12.35;90.53
75865;HTU21D;64510;46.704;38.274;2023-03-21T06:48:58;12.12;90.28
75865;HTU21D;64510;46.704;38.274;2023-03-21T06:51:27;11.75;89.92
75865;HTU21D;64510;46.704;38.274;2023-03-21T06:54:03;11.37;90.46
75865;HTU21D;64510;46.704;38.274;2023-03-21T06:56:44;11.03;91.00
75865;HTU21D;64510;46.704;38.274;2023-03-21T06:59:15;10.93;91.60
75865;HTU21D;64510;46.704;38.274;2023-03-21T07:02:02;10.94;91.46
75865;HTU21D;64510;46.704;38.274;2023-03-21T07:04:29;10.89;91.47
75865;HTU21D;64510;46.704;38.274;2023-03-21T07:06:57;11.02;91.40
75865;HTU21D;64510;46.704;38.274;2023-03-21T07:09:23;11.04;91.03
75865;HTU21D;64510;46.704;38.274;2023-03-21T07:11:55;11.15;90.66
75865;HTU21D;64510;46.704;38.274;2023-03-21T07:14:24;11.26;90.56
75865;HTU21D;64510;46.704;38.274;2023-03-21T07:16:50;11.26;90.43
75865;HTU21D;64510;46.704;38.274;2023-03-21T07:19:17;11.32;89.99
75865;HTU21D;64510;46.704;38.274;2023-03-21T07:21:43;11.34;89.73
75865;HTU21D;64510;46.704;38.274;2023-03-21T07:24:09;11.40;89.24
75865;HTU21D;64510;46.704;38.274;2023-03-21T07:26:34;11.51;88.96
75865;HTU21D;64510;46.704;38.274;2023-03-21T07:29:02;11.34;88.76
75865;HTU21D;64510;46.704;38.274;2023-03-21T07:31:28;11.25;89.39
75865;HTU21D;64510;46.704;38.274;2023-03-21T07:33:54;11.57;89.44
75865;HTU21D;64510;46.704;38.274;2023-03-21T07:36:21;11.79;88.70
75865;HTU21D;64510;46.704;38.274;2023-03-21T07:38:47;12.01;88.64
75865;HTU21D;64510;46.704;38.274;2023-03-21T07:41:18;12.27;88.67
75865;HTU21D;64510;46.704;38.274;2023-03-21T07:43:44;12.55;88.38
75865;HTU21D;64510;46.704;38.274;2023-03-21T07:46:10;12.82;87.61
75865;HTU21D;64510;46.704;38.274;2023-03-21T07:48:36;13.12;87.41
75865;HTU21D;64510;46.704;38.274;2023-03-21T07:51:02;13.48;86.87
75865;HTU21D;64510;46.704;38.274;2023-03-21T07:53:31;13.83;86.67
75865;HTU21D;64510;46.704;38.274;2023-03-21T07:55:57;14.11;86.50
75865;HTU21D;64510;46.704;38.274;2023-03-21T07:58:23;14.38;86.17
75865;HTU21D;64510;46.704;38.274;2023-03-21T08:00:51;14.73;85.46
75865;HTU21D;64510;46.704;38.274;2023-03-21T08:03:18;15.08;84.81
75865;HTU21D;64510;46.704;38.274;2023-03-21T08:05:44;15.31;83.57
75865;HTU21D;64510;46.704;38.274;2023-03-21T08:08:10;15.09;82.36
75865;HTU21D;64510;46.704;38.274;2023-03-21T08:10:37;14.58;81.79
75865;HTU21D;64510;46.704;38.274;2023-03-21T08:13:04;14.24;81.23
75865;HTU21D;64510;46.704;38.274;2023-03-21T08:15:30;13.99;81.53
75865;HTU21D;64510;46.704;38.274;2023-03-21T08:17:58;13.75;81.02
75865;HTU21D;64510;46.704;38.274;2023-03-21T08:20:24;13.65;81.10
75865;HTU21D;64510;46.704;38.274;2023-03-21T08:22:50;13.60;81.14
75865;HTU21D;64510;46.704;38.274;2023-03-21T08:25:19;13.46;80.95
75865;HTU21D;64510;46.704;38.274;2023-03-21T08:27:46;13.45;80.94
75865;HTU21D;64510;46.704;38.274;2023-03-21T08:30:15;13.45;80.65
75865;HTU21D;64510;46.704;38.274;2023-03-21T08:32:42;13.44;80.80
75865;HTU21D;64510;46.704;38.274;2023-03-21T08:35:11;13.47;80.86
75865;HTU21D;64510;46.704;38.274;2023-03-21T08:37:38;13.59;80.91
75865;HTU21D;64510;46.704;38.274;2023-03-21T08:40:06;13.37;80.95
75865;HTU21D;64510;46.704;38.274;2023-03-21T08:42:39;12.94;81.46
75865;HTU21D;64510;46.704;38.274;2023-03-21T08:45:06;12.82;81.93
75865;HTU21D;64510;46.704;38.274;2023-03-21T08:47:32;12.59;82.13
75865;HTU21D;64510;46.704;38.274;2023-03-21T08:49:58;12.63;82.38
75865;HTU21D;64510;46.704;38.274;2023-03-21T08:52:25;12.73;82.01
75865;HTU21D;64510;46.704;38.274;2023-03-21T08:54:52;12.60;82.27
75865;HTU21D;64510;46.704;38.274;2023-03-21T08:57:18;12.69;82.20
75865;HTU21D;64510;46.704;38.274;2023-03-21T08:59:44;12.73;81.94
75865;HTU21D;64510;46.704;38.274;2023-03-21T09:02:14;12.55;82.26
75865;HTU21D;64510;46.704;38.274;2023-03-21T09:04:41;12.33;82.79
75865;HTU21D;64510;46.704;38.274;2023-03-21T09:07:08;12.10;82.48
75865;HTU21D;64510;46.704;38.274;2023-03-21T09:09:36;11.79;83.15
75865;HTU21D;64510;46.704;38.274;2023-03-21T09:12:02;11.74;83.16
75865;HTU21D;64510;46.704;38.274;2023-03-21T09:14:28;11.51;83.29
75865;HTU21D;64510;46.704;38.274;2023-03-21T09:16:54;11.39;83.75
75865;HTU21D;64510;46.704;38.274;2023-03-21T09:19:20;11.32;83.88
75865;HTU21D;64510;46.704;38.274;2023-03-21T09:21:47;11.55;83.19
75865;HTU21D;64510;46.704;38.274;2023-03-21T09:24:13;11.61;83.07
75865;HTU21D;64510;46.704;38.274;2023-03-21T09:26:40;11.73;82.39
75865;HTU21D;64510;46.704;38.274;2023-03-21T09:29:06;11.87;82.43
75865;HTU21D;64510;46.704;38.274;2023-03-21T09:31:32;11.99;82.11
75865;HTU21D;64510;46.704;38.274;2023-03-21T09:33:58;12.23;81.84
75865;HTU21D;64510;46.704;38.274;2023-03-21T09:36:25;12.25;81.04
75865;HTU21D;64510;46.704;38.274;2023-03-21T09:38:52;12.26;81.04
75865;HTU21D;64510;46.704;38.274;2023-03-21T09:46:50;12.56;80.56
75865;HTU21D;64510;46.704;38.274;2023-03-21T09:49:27;12.55;80.07
75865;HTU21D;64510;46.704;38.274;2023-03-21T09:51:58;12.22;80.53
75865;HTU21D;64510;46.704;38.274;2023-03-21T09:54:26;12.07;81.00
75865;HTU21D;64510;46.704;38.274;2023-03-21T09:56:55;12.05;80.85
75865;HTU21D;64510;46.704;38.274;2023-03-21T09:59:27;12.01;81.08
75865;HTU21D;64510;46.704;38.274;2023-03-21T10:01:53;12.07;81.10
75865;HTU21D;64510;46.704;38.274;2023-03-21T10:04:20;12.21;80.94
75865;HTU21D;64510;46.704;38.274;2023-03-21T10:06:56;12.16;80.57
75865;HTU21D;64510;46.704;38.274;2023-03-21T10:09:26;12.05;80.86
75865;HTU21D;64510;46.704;38.274;2023-03-21T10:12:02;11.90;81.07
75865;HTU21D;64510;46.704;38.274;2023-03-21T10:14:34;11.88;81.59
75865;HTU21D;64510;46.704;38.274;2023-03-21T10:19:56;11.85;81.35
75865;HTU21D;64510;46.704;38.274;2023-03-21T10:22:34;12.01;81.28
75865;HTU21D;64510;46.704;38.274;2023-03-21T10:25:00;11.99;80.81
75865;HTU21D;64510;46.704;38.274;2023-03-21T10:27:27;11.86;81.23
75865;HTU21D;64510;46.704;38.274;2023-03-21T10:29:53;11.79;81.44
75865;HTU21D;64510;46.704;38.274;2023-03-21T10:32:22;11.87;81.36
75865;HTU21D;64510;46.704;38.274;2023-03-21T10:34:55;11.85;81.42
75865;HTU21D;64510;46.704;38.274;2023-03-21T10:37:23;11.91;81.52
75865;HTU21D;64510;46.704;38.274;2023-03-21T10:39:52;12.00;81.30
75865;HTU21D;64510;46.704;38.274;2023-03-21T10:42:21;12.01;81.30
75865;HTU21D;64510;46.704;38.274;2023-03-21T10:44:51;12.05;81.31
75865;HTU21D;64510;46.704;38.274;2023-03-21T10:47:26;12.03;81.30
75865;HTU21D;64510;46.704;38.274;2023-03-21T10:49:52;12.16;81.23
75865;HTU21D;64510;46.704;38.274;2023-03-21T10:52:22;12.23;80.84
75865;HTU21D;64510;46.704;38.274;2023-03-21T10:57:48;12.40;80.88
75865;HTU21D;64510;46.704;38.274;2023-03-21T11:00:22;12.42;80.62
75865;HTU21D;64510;46.704;38.274;2023-03-21T11:02:50;12.42;80.74
75865;HTU21D;64510;46.704;38.274;2023-03-21T11:05:24;12.44;80.52
75865;HTU21D;64510;46.704;38.274;2023-03-21T11:08:09;12.35;80.71
75865;HTU21D;64510;46.704;38.274;2023-03-21T11:10:47;12.29;80.91
75865;HTU21D;64510;46.704;38.274;2023-03-21T11:13:23;12.23;81.02
75865;HTU21D;64510;46.704;38.274;2023-03-21T11:15:55;12.28;81.04
75865;HTU21D;64510;46.704;38.274;2023-03-21T11:18:25;12.29;81.09
75865;HTU21D;64510;46.704;38.274;2023-03-21T11:20:58;12.30;81.16
75865;HTU21D;64510;46.704;38.274;2023-03-21T11:23:32;12.33;81.23
75865;HTU21D;64510;46.704;38.274;2023-03-21T11:26:00;12.34;81.25
75865;HTU21D;64510;46.704;38.274;2023-03-21T11:28:35;12.34;81.23
75865;HTU21D;64510;46.704;38.274;2023-03-21T11:31:03;12.38;81.31
75865;HTU21D;64510;46.704;38.274;2023-03-21T11:33:36;12.47;81.20
75865;HTU21D;64510;46.704;38.274;2023-03-21T11:39:23;12.65;80.78
75865;HTU21D;64510;46.704;38.274;2023-03-21T11:41:52;12.64;81.04
75865;HTU21D;64510;46.704;38.274;2023-03-21T11:44:30;12.70;80.99
75865;HTU21D;64510;46.704;38.274;2023-03-21T11:46:57;12.75;80.90
75865;HTU21D;64510;46.704;38.274;2023-03-21T11:49:24;12.71;81.03
75865;HTU21D;64510;46.704;38.274;2023-03-21T11:52:04;12.73;80.94
75865;HTU21D;64510;46.704;38.274;2023-03-21T12:00:55;12.63;81.10
75865;HTU21D;64510;46.704;38.274;2023-03-21T12:06:37;12.67;81.00
75865;HTU21D;64510;46.704;38.274;2023-03-21T12:14:34;12.65;81.33
75865;HTU21D;64510;46.704;38.274;2023-03-21T12:17:39;12.74;81.33
75865;HTU21D;64510;46.704;38.274;2023-03-21T12:20:08;12.88;81.17
75865;HTU21D;64510;46.704;38.274;2023-03-21T12:25:32;13.18;80.75
75865;HTU21D;64510;46.704;38.274;2023-03-21T12:31:11;13.47;80.40
75865;HTU21D;64510;46.704;38.274;2023-03-21T12:33:44;13.52;80.17
75865;HTU21D;64510;46.704;38.274;2023-03-21T12:39:26;13.55;79.81
75865;HTU21D;64510;46.704;38.274;2023-03-21T12:44:40;13.50;80.22
75865;HTU21D;64510;46.704;38.274;2023-03-21T12:47:35;13.55;80.14
75865;HTU21D;64510;46.704;38.274;2023-03-21T12:50:28;13.54;80.12
75865;HTU21D;64510;46.704;38.274;2023-03-21T12:53:03;13.52;80.25
75865;HTU21D;64510;46.704;38.274;2023-03-21T12:55:32;13.52;80.29
75865;HTU21D;64510;46.704;38.274;2023-03-21T12:58:19;13.55;80.11
75865;HTU21D;64510;46.704;38.274;2023-03-21T13:00:51;13.60;80.02
75865;HTU21D;64510;46.704;38.274;2023-03-21T13:03:40;13.66;79.78
75865;HTU21D;64510;46.704;38.274;2023-03-21T13:06:12;13.61;79.69
75865;HTU21D;64510;46.704;38.274;2023-03-21T13:08:59;13.58;79.82
75865;HTU21D;64510;46.704;38.274;2023-03-21T13:11:29;13.60;79.84
75865;HTU21D;64510;46.704;38.274;2023-03-21T13:14:16;13.60;79.62
75865;HTU21D;64510;46.704;38.274;2023-03-21T13:19:42;13.54;79.49
75865;HTU21D;64510;46.704;38.274;2023-03-21T13:22:27;13.53;79.49
75865;HTU21D;64510;46.704;38.274;2023-03-21T13:27:30;13.51;79.58
75865;HTU21D;64510;46.704;38.274;2023-03-21T13:32:46;13.41;79.19
75865;HTU21D;64510;46.704;38.274;2023-03-21T13:37:51;13.19;79.58
75865;HTU21D;64510;46.704;38.274;2023-03-21T13:40:48;13.04;79.81
75865;HTU21D;64510;46.704;38.274;2023-03-21T13:43:39;12.93;80.00
75865;HTU21D;64510;46.704;38.274;2023-03-21T13:49:46;12.79;80.47
75865;HTU21D;64510;46.704;38.274;2023-03-21T13:51:52;12.74;80.60
75865;HTU21D;64510;46.704;38.274;2023-03-21T13:54:22;12.74;80.62
75865;HTU21D;64510;46.704;38.274;2023-03-21T13:56:55;12.75;80.59
75865;HTU21D;64510;46.704;38.274;2023-03-21T13:59:41;12.76;80.33
75865;HTU21D;64510;46.704;38.274;2023-03-21T14:02:32;12.75;80.27
75865;HTU21D;64510;46.704;38.274;2023-03-21T14:05:18;12.73;80.10
75865;HTU21D;64510;46.704;38.274;2023-03-21T14:07:48;12.69;80.08
75865;HTU21D;64510;46.704;38.274;2023-03-21T14:10:19;12.64;80.25
75865;HTU21D;64510;46.704;38.274;2023-03-21T14:12:47;12.64;80.02
75865;HTU21D;64510;46.704;38.274;2023-03-21T14:15:35;12.59;79.81
75865;HTU21D;64510;46.704;38.274;2023-03-21T14:18:03;12.55;79.62
75865;HTU21D;64510;46.704;38.274;2023-03-21T14:20:34;12.49;79.59
75865;HTU21D;64510;46.704;38.274;2023-03-21T14:23:11;12.47;79.47
75865;HTU21D;64510;46.704;38.274;2023-03-21T14:25:38;12.45;79.41
75865;HTU21D;64510;46.704;38.274;2023-03-21T14:28:15;12.38;79.25
75865;HTU21D;64510;46.704;38.274;2023-03-21T14:30:43;12.30;79.25
75865;HTU21D;64510;46.704;38.274;2023-03-21T14:33:18;12.29;78.98
75865;HTU21D;64510;46.704;38.274;2023-03-21T14:35:46;12.18;78.97
75865;HTU21D;64510;46.704;38.274;2023-03-21T14:38:26;12.11;78.89
75865;HTU21D;64510;46.704;38.274;2023-03-21T14:40:55;12.10;78.98
75865;HTU21D;64510;46.704;38.274;2023-03-21T14:43:22;12.07;79.01
75865;HTU21D;64510;46.704;38.274;2023-03-21T14:45:51;11.97;79.02
75865;HTU21D;64510;46.704;38.274;2023-03-21T14:48:20;11.92;78.95
75865;HTU21D;64510;46.704;38.274;2023-03-21T14:50:49;11.90;78.81
75865;HTU21D;64510;46.704;38.274;2023-03-21T14:53:25;11.87;78.57
75865;HTU21D;64510;46.704;38.274;2023-03-21T14:56:02;11.85;78.56
75865;HTU21D;64510;46.704;38.274;2023-03-21T14:58:29;11.82;78.48
75865;HTU21D;64510;46.704;38.274;2023-03-21T15:01:04;11.79;78.26
75865;HTU21D;64510;46.704;38.274;2023-03-21T15:03:31;11.77;78.34
75865;HTU21D;64510;46.704;38.274;2023-03-21T15:05:57;11.77;78.28
75865;HTU21D;64510;46.704;38.274;2023-03-21T15:08:26;11.73;78.20
75865;HTU21D;64510;46.704;38.274;2023-03-21T15:13:22;11.61;78.24
75865;HTU21D;64510;46.704;38.274;2023-03-21T15:15:50;11.56;78.32
75865;HTU21D;64510;46.704;38.274;2023-03-21T15:18:25;11.52;78.28
75865;HTU21D;64510;46.704;38.274;2023-03-21T15:20:53;11.48;78.37
75865;HTU21D;64510;46.704;38.274;2023-03-21T15:23:27;11.43;78.40
75865;HTU21D;64510;46.704;38.274;2023-03-21T15:25:54;11.36;78.52
75865;HTU21D;64510;46.704;38.274;2023-03-21T15:28:21;11.28;78.63
75865;HTU21D;64510;46.704;38.274;2023-03-21T15:30:51;11.19;78.70
75865;HTU21D;64510;46.704;38.274;2023-03-21T15:33:18;11.09;78.85
75865;HTU21D;64510;46.704;38.274;2023-03-21T15:35:56;11.00;78.97
75865;HTU21D;64510;46.704;38.274;2023-03-21T15:38:32;10.92;79.06
75865;HTU21D;64510;46.704;38.274;2023-03-21T15:43:59;10.79;79.26
75865;HTU21D;64510;46.704;38.274;2023-03-21T15:46:41;10.73;79.33
75865;HTU21D;64510;46.704;38.274;2023-03-21T15:51:45;10.62;79.53
75865;HTU21D;64510;46.704;38.274;2023-03-21T15:56:53;10.53;79.65
75865;HTU21D;64510;46.704;38.274;2023-03-21T15:59:21;10.46;79.75
75865;HTU21D;64510;46.704;38.274;2023-03-21T16:01:49;10.41;79.81
75865;HTU21D;64510;46.704;38.274;2023-03-21T16:04:15;10.37;79.88
75865;HTU21D;64510;46.704;38.274;2023-03-21T16:09:24;10.31;80.01
75865;HTU21D;64510;46.704;38.274;2023-03-21T16:11:57;10.30;80.03
75865;HTU21D;64510;46.704;38.274;2023-03-21T16:14:25;10.29;80.05
75865;HTU21D;64510;46.704;38.274;2023-03-21T16:16:55;10.27;80.07
75865;HTU21D;64510;46.704;38.274;2023-03-21T16:19:22;10.25;80.09
75865;HTU21D;64510;46.704;38.274;2023-03-21T16:21:49;10.22;80.12
75865;HTU21D;64510;46.704;38.274;2023-03-21T16:24:15;10.21;80.14
75865;HTU21D;64510;46.704;38.274;2023-03-21T16:26:45;10.20;80.16
75865;HTU21D;64510;46.704;38.274;2023-03-21T16:29:16;10.20;80.18
75865;HTU21D;64510;46.704;38.274;2023-03-21T16:31:43;10.16;80.21
75865;HTU21D;64510;46.704;38.274;2023-03-21T16:34:11;10.15;80.22
75865;HTU21D;64510;46.704;38.274;2023-03-21T16:36:39;10.14;80.23
75865;HTU21D;64510;46.704;38.274;2023-03-21T16:39:16;10.12;80.28
75865;HTU21D;64510;46.704;38.274;2023-03-21T16:41:43;10.09;80.28
75865;HTU21D;64510;46.704;38.274;2023-03-21T16:44:09;10.04;80.38
75865;HTU21D;64510;46.704;38.274;2023-03-21T16:46:35;9.99;80.43
75865;HTU21D;64510;46.704;38.274;2023-03-21T16:49:01;9.95;80.54
75865;HTU21D;64510;46.704;38.274;2023-03-21T16:51:35;9.89;80.63
75865;HTU21D;64510;46.704;38.274;2023-03-21T16:54:01;9.81;80.76
75865;HTU21D;64510;46.704;38.274;2023-03-21T16:56:43;9.77;80.85
75865;HTU21D;64510;46.704;38.274;2023-03-21T16:59:11;9.69;80.97
75865;HTU21D;64510;46.704;38.274;2023-03-21T17:01:38;9.63;81.04